Time;durP1;ratioP1;P1;durP2;ratioP2;P2;SDS_P1;SDS_P2;PMS_P1;PMS_P2;Temp;Humidity;BMP_temperature;BMP_pressure;BME280_temperature;BME280_humidity;BME280_pressure;Samples;Min_cycle;Max_cycle;Signal;HPM_P1;HPM_P2
2021/06/13 00:01:19;;;;;;;4.13;2.80;;;14.90;1.00;;;;;;5137854;27;20516;-70
2021/06/13 00:03:48;;;;;;;5.87;3.57;;;14.90;1.00;;;;;;5137785;27;20455;-70
2021/06/13 00:06:14;;;;;;;6.37;3.13;;;14.90;99.90;;;;;;5137405;27;20533;-70
2021/06/13 00:08:40;;;;;;;8.13;3.00;;;14.80;99.90;;;;;;5137148;27;20544;-70
2021/06/13 00:11:07;;;;;;;9.37;3.10;;;14.80;99.90;;;;;;5137212;27;20923;-70
2021/06/13 00:13:36;;;;;;;5.30;2.90;;;14.80;99.90;;;;;;5137253;27;20459;-70
2021/06/13 00:16:04;;;;;;;6.03;2.80;;;14.80;99.90;;;;;;5137303;27;20455;-70
2021/06/13 00:18:30;;;;;;;5.80;3.20;;;14.80;99.90;;;;;;5137420;27;20783;-70
2021/06/13 00:20:58;;;;;;;6.10;2.60;;;14.70;99.90;;;;;;5137298;27;20462;-71
2021/06/13 00:23:24;;;;;;;5.37;3.10;;;14.70;99.90;;;;;;5137244;27;20462;-71
2021/06/13 00:25:53;;;;;;;8.97;3.33;;;14.60;99.90;;;;;;5137167;27;20455;-70
2021/06/13 00:28:20;;;;;;;5.73;3.17;;;14.60;99.90;;;;;;5127803;27;20484;-71
2021/06/13 00:30:46;;;;;;;6.00;2.60;;;14.60;99.90;;;;;;5115612;28;20452;-71
2021/06/13 00:33:12;;;;;;;7.27;3.17;;;14.50;99.90;;;;;;5116634;28;20464;-70
2021/06/13 00:35:39;;;;;;;9.77;3.00;;;14.50;99.90;;;;;;5116469;28;20776;-70
2021/06/13 00:38:06;;;;;;;7.40;2.77;;;14.50;99.90;;;;;;5115963;28;20456;-71
2021/06/13 00:40:34;;;;;;;5.00;2.60;;;14.50;99.90;;;;;;5116822;28;20769;-71
2021/06/13 00:43:00;;;;;;;3.30;2.40;;;14.50;99.90;;;;;;5116341;28;20452;-71
2021/06/13 00:45:27;;;;;;;6.23;2.63;;;14.50;99.90;;;;;;5116415;28;20463;-70
2021/06/13 00:47:55;;;;;;;6.97;3.73;;;14.40;99.90;;;;;;5116272;28;20551;-70
2021/06/13 00:50:27;;;;;;;4.90;3.10;;;14.40;99.90;;;;;;5116569;28;20456;-70
2021/06/13 00:52:53;;;;;;;4.27;3.00;;;14.40;99.90;;;;;;5116037;28;20441;-70
2021/06/13 00:55:22;;;;;;;4.37;2.40;;;14.30;99.90;;;;;;5115803;28;20456;-70
2021/06/13 00:57:48;;;;;;;5.53;2.47;;;14.20;99.90;;;;;;5115755;28;20475;-70
2021/06/13 01:00:15;;;;;;;4.63;2.50;;;14.20;99.90;;;;;;5116387;28;20467;-70
2021/06/13 01:02:41;;;;;;;4.70;2.23;;;14.20;99.90;;;;;;5116281;28;20467;-71
2021/06/13 01:05:09;;;;;;;4.43;3.13;;;14.30;92.60;;;;;;5116760;28;20572;-70
2021/06/13 01:07:44;;;;;;;7.47;3.40;;;14.30;78.30;;;;;;5115578;28;20971;-70
2021/06/13 01:10:19;;;;;;;6.43;3.30;;;14.30;68.20;;;;;;5115366;28;20881;-70
2021/06/13 01:12:51;;;;;;;6.07;3.17;;;14.20;59.30;;;;;;5115818;28;20484;-70
2021/06/13 01:15:23;;;;;;;7.07;2.50;;;14.10;49.80;;;;;;5115569;28;20513;-70
2021/06/13 01:17:59;;;;;;;4.67;2.93;;;14.10;50.40;;;;;;5116298;28;20433;-70
2021/06/13 01:20:27;;;;;;;4.63;2.70;;;14.10;55.70;;;;;;5115645;28;20769;-70
2021/06/13 01:23:14;;;;;;;3.70;2.30;;;14.10;47.10;;;;;;5115676;28;20453;-70
2021/06/13 01:26:06;;;;;;;5.23;2.43;;;14.10;43.90;;;;;;5115225;28;20437;-70
2021/06/13 01:28:59;;;;;;;4.73;2.13;;;14.00;45.50;;;;;;5115518;28;20465;-70
2021/06/13 01:31:30;;;;;;;4.83;2.33;;;14.00;46.10;;;;;;5111609;28;20770;-70
2021/06/13 01:33:59;;;;;;;7.47;2.90;;;14.00;47.30;;;;;;5115738;28;20436;-70
2021/06/13 01:36:26;;;;;;;6.00;2.43;;;14.00;52.20;;;;;;5115580;28;20517;-70
2021/06/13 01:38:56;;;;;;;6.83;2.40;;;13.90;60.10;;;;;;5115245;28;20913;-70
2021/06/13 01:41:26;;;;;;;6.10;3.10;;;13.80;96.20;;;;;;5116450;28;20444;-70
2021/06/13 01:43:55;;;;;;;4.23;2.50;;;13.80;99.90;;;;;;5115386;28;20928;-70
2021/06/13 01:46:24;;;;;;;5.13;3.57;;;13.80;99.90;;;;;;5115712;28;20541;-70
2021/06/13 01:48:52;;;;;;;6.10;3.03;;;13.70;99.90;;;;;;5114974;28;20480;-70
2021/06/13 01:51:22;;;;;;;9.03;2.70;;;13.60;99.90;;;;;;5115082;28;20488;-70
2021/06/13 01:53:49;;;;;;;11.50;3.80;;;13.60;99.90;;;;;;5115338;28;20452;-70
2021/06/13 01:56:17;;;;;;;5.40;2.97;;;13.60;99.90;;;;;;5114709;28;20452;-70
2021/06/13 01:58:46;;;;;;;9.63;3.23;;;13.70;99.90;;;;;;5114716;28;20463;-70
2021/06/13 02:01:14;;;;;;;10.70;3.27;;;13.70;99.90;;;;;;5114940;28;20452;-70
2021/06/13 02:03:45;;;;;;;5.83;2.83;;;13.60;99.90;;;;;;5115297;28;20513;-69
2021/06/13 02:06:12;;;;;;;3.87;3.03;;;13.60;99.90;;;;;;5115163;28;20436;-70
2021/06/13 02:08:40;;;;;;;3.70;2.80;;;13.50;99.90;;;;;;5114790;28;20480;-69
2021/06/13 02:11:11;;;;;;;6.20;3.10;;;13.60;99.90;;;;;;5114989;28;20456;-69
2021/06/13 02:13:39;;;;;;;6.17;2.83;;;13.60;99.90;;;;;;5115212;28;20440;-69
2021/06/13 02:16:07;;;;;;;8.43;3.27;;;13.60;99.90;;;;;;5115378;28;20832;-69
2021/06/13 02:18:33;;;;;;;3.30;2.50;;;13.50;99.90;;;;;;5114752;28;20449;-70
2021/06/13 02:21:06;;;;;;;4.07;2.87;;;13.40;99.90;;;;;;5114867;28;20948;-69
2021/06/13 02:23:32;;;;;;;6.97;2.60;;;13.40;99.90;;;;;;5114546;28;20491;-69
2021/06/13 02:25:58;;;;;;;6.80;2.80;;;13.40;99.90;;;;;;5114559;28;20459;-69
2021/06/13 02:28:27;;;;;;;8.60;2.83;;;13.40;1.00;;;;;;5114570;28;20472;-69
2021/06/13 02:30:54;;;;;;;8.33;2.83;;;13.30;1.00;;;;;;5114863;28;20456;-69
2021/06/13 02:33:21;;;;;;;4.30;2.60;;;13.30;1.00;;;;;;5114433;28;20452;-69
2021/06/13 02:35:51;;;;;;;9.53;3.90;;;13.30;1.00;;;;;;5114992;28;20770;-70
2021/06/13 02:38:20;;;;;;;10.03;2.97;;;13.20;1.00;;;;;;5116158;28;20472;-70
2021/06/13 02:40:47;;;;;;;6.50;2.60;;;13.20;1.00;;;;;;5114997;28;20461;-70
2021/06/13 02:43:14;;;;;;;7.00;2.67;;;13.20;1.00;;;;;;5114898;28;20457;-70
2021/06/13 02:45:40;;;;;;;7.53;3.03;;;13.20;1.00;;;;;;5114649;28;20498;-71
2021/06/13 02:48:07;;;;;;;4.33;2.67;;;13.20;1.00;;;;;;5114495;28;20471;-69
2021/06/13 02:50:34;;;;;;;9.00;3.53;;;13.20;1.00;;;;;;5114544;28;20992;-69
2021/06/13 02:53:09;;;;;;;4.90;2.50;;;13.10;1.00;;;;;;5114434;28;20448;-70
2021/06/13 02:55:44;;;;;;;6.03;2.90;;;13.10;1.00;;;;;;5118269;28;20918;-70
2021/06/13 02:58:19;;;;;;;5.97;2.70;;;13.20;1.00;;;;;;5118706;28;20502;-69
2021/06/13 03:00:48;;;;;;;9.03;3.07;;;13.10;1.00;;;;;;5118325;28;20432;-69
2021/06/13 03:03:19;;;;;;;5.50;3.00;;;13.10;1.00;;;;;;5118288;28;20456;-70
2021/06/13 03:05:46;;;;;;;5.50;2.63;;;13.10;1.00;;;;;;5119226;28;20452;-69
2021/06/13 03:08:13;;;;;;;5.37;3.03;;;13.00;1.00;;;;;;5118168;28;20956;-70
2021/06/13 03:10:42;;;;;;;6.90;3.10;;;13.00;28.20;;;;;;5122266;28;20809;-70
2021/06/13 03:13:08;;;;;;;5.70;2.87;;;12.90;98.80;;;;;;5125876;28;20767;-70
2021/06/13 03:15:35;;;;;;;6.63;2.50;;;13.00;99.90;;;;;;5124951;28;20467;-70
2021/06/13 03:18:02;;;;;;;7.63;2.50;;;13.00;1.00;;;;;;5125361;28;20512;-71
2021/06/13 03:20:29;;;;;;;3.67;2.70;;;12.90;99.90;;;;;;5124827;28;20928;-71
2021/06/13 03:22:57;;;;;;;9.30;3.47;;;12.90;99.90;;;;;;5124907;28;20448;-71
2021/06/13 03:25:24;;;;;;;6.33;2.80;;;13.00;99.90;;;;;;5122686;28;20463;-70
2021/06/13 03:27:53;;;;;;;3.93;2.60;;;13.00;99.90;;;;;;5118372;28;20472;-70
2021/06/13 03:30:20;;;;;;;6.67;2.70;;;12.90;99.90;;;;;;5117723;28;20456;-70
2021/06/13 03:32:47;;;;;;;6.17;3.23;;;12.90;99.90;;;;;;5117815;28;20461;-70
2021/06/13 03:35:14;;;;;;;6.33;2.80;;;12.90;99.90;;;;;;5117604;28;20463;-70
2021/06/13 03:37:44;;;;;;;7.27;3.27;;;12.90;99.90;;;;;;5117549;28;20448;-70
2021/06/13 03:40:12;;;;;;;5.83;2.73;;;12.90;99.90;;;;;;5117942;28;20476;-70
2021/06/13 03:42:40;;;;;;;7.13;2.50;;;12.90;1.00;;;;;;5117549;28;20468;-71
2021/06/13 03:45:09;;;;;;;5.90;2.60;;;12.80;1.00;;;;;;5117405;28;20912;-70
2021/06/13 03:47:37;;;;;;;7.87;2.70;;;12.90;1.00;;;;;;5117571;28;20575;-70
2021/06/13 03:50:06;;;;;;;7.60;3.23;;;12.90;1.00;;;;;;5117653;28;20487;-70
2021/06/13 03:52:33;;;;;;;9.40;3.60;;;12.90;1.00;;;;;;5117282;28;21009;-70
2021/06/13 03:55:00;;;;;;;9.33;2.60;;;12.90;1.00;;;;;;5117272;28;20803;-70
2021/06/13 03:57:30;;;;;;;4.60;2.93;;;12.90;99.90;;;;;;5117263;28;20449;-70
2021/06/13 03:59:59;;;;;;;5.50;2.70;;;12.90;1.00;;;;;;5117109;28;20484;-70
2021/06/13 04:02:27;;;;;;;8.90;2.67;;;12.90;99.90;;;;;;5117505;28;20761;-70
2021/06/13 04:04:56;;;;;;;5.47;2.60;;;13.00;99.90;;;;;;5117939;28;20540;-70
2021/06/13 04:07:23;;;;;;;7.67;3.30;;;13.00;99.90;;;;;;5116622;28;20522;-71
2021/06/13 04:09:50;;;;;;;5.37;3.00;;;13.00;72.70;;;;;;5116979;28;20456;-70
2021/06/13 04:12:19;;;;;;;7.90;2.70;;;13.10;1.00;;;;;;5117150;28;20516;-71
2021/06/13 04:14:47;;;;;;;6.80;2.50;;;13.20;1.00;;;;;;5116743;28;20943;-70
2021/06/13 04:17:17;;;;;;;6.00;3.17;;;13.30;1.00;;;;;;5116482;28;20932;-70
2021/06/13 04:19:47;;;;;;;5.67;2.70;;;13.30;1.00;;;;;;5116774;28;20788;-70
2021/06/13 04:22:16;;;;;;;5.03;3.17;;;13.30;99.90;;;;;;5116957;28;20460;-70
2021/06/13 04:24:45;;;;;;;5.50;2.60;;;13.30;99.90;;;;;;5116981;28;20448;-70
2021/06/13 04:27:12;;;;;;;9.90;3.70;;;13.30;99.90;;;;;;5117143;28;20452;-70
2021/06/13 04:29:39;;;;;;;4.50;2.30;;;13.40;1.00;;;;;;5116873;28;20630;-71
2021/06/13 04:32:09;;;;;;;4.00;2.43;;;13.40;99.90;;;;;;5116670;28;20453;-70
2021/06/13 04:34:36;;;;;;;6.50;2.40;;;13.50;99.90;;;;;;5116646;28;20486;-70
2021/06/13 04:37:05;;;;;;;10.27;3.03;;;13.60;95.60;;;;;;5116917;28;20449;-70
2021/06/13 04:39:32;;;;;;;6.80;2.90;;;13.60;63.90;;;;;;5117013;28;20785;-70
2021/06/13 04:42:01;;;;;;;3.30;2.13;;;13.70;1.00;;;;;;5117384;28;20460;-70
2021/06/13 04:44:28;;;;;;;3.50;2.60;;;13.80;1.00;;;;;;5116993;28;20449;-71
2021/06/13 04:46:55;;;;;;;5.87;2.33;;;13.70;1.00;;;;;;5116092;28;20488;-71
2021/06/13 04:49:21;;;;;;;6.77;2.87;;;13.70;1.00;;;;;;5115957;28;20481;-71
2021/06/13 04:51:51;;;;;;;5.37;2.73;;;13.70;1.00;;;;;;5116650;28;20467;-70
2021/06/13 04:54:31;;;;;;;12.70;3.30;;;13.60;1.00;;;;;;5116488;28;20456;-70
2021/06/13 04:57:08;;;;;;;10.60;3.50;;;13.60;1.00;;;;;;5116369;28;20448;-70
2021/06/13 04:59:35;;;;;;;8.83;3.70;;;13.50;38.70;;;;;;5116029;28;20440;-69
2021/06/13 05:02:02;;;;;;;6.27;3.00;;;13.40;99.90;;;;;;5116069;28;20456;-70
2021/06/13 05:04:29;;;;;;;6.90;2.93;;;13.40;99.90;;;;;;5115903;28;20580;-70
2021/06/13 05:06:57;;;;;;;7.20;2.80;;;13.40;99.90;;;;;;5116538;28;20464;-69
2021/06/13 05:09:25;;;;;;;5.67;2.80;;;13.50;99.90;;;;;;5115676;28;20486;-70
2021/06/13 05:11:52;;;;;;;9.80;2.83;;;13.60;78.90;;;;;;5115967;28;20905;-70
2021/06/13 05:14:18;;;;;;;5.57;2.47;;;13.60;64.30;;;;;;5116830;28;20464;-71
2021/06/13 05:16:45;;;;;;;7.97;2.80;;;13.60;99.90;;;;;;5115660;28;20468;-70
2021/06/13 05:19:12;;;;;;;7.70;2.50;;;13.60;99.00;;;;;;5115801;28;20463;-70
2021/06/13 05:21:38;;;;;;;6.70;2.70;;;13.60;99.90;;;;;;5115710;28;20467;-69
2021/06/13 05:24:06;;;;;;;4.03;2.40;;;13.60;1.00;;;;;;5115485;28;20788;-69
2021/06/13 05:26:34;;;;;;;4.77;2.67;;;13.50;75.00;;;;;;5115562;28;20456;-69
2021/06/13 05:29:02;;;;;;;7.63;3.80;;;13.50;89.50;;;;;;5115363;28;20487;-69
2021/06/13 05:31:28;;;;;;;13.97;2.50;;;13.50;99.90;;;;;;5115464;28;20467;-70
2021/06/13 05:33:55;;;;;;;6.27;2.50;;;13.50;99.90;;;;;;5115551;28;20455;-69
2021/06/13 05:36:22;;;;;;;8.57;3.10;;;13.60;36.30;;;;;;5115146;28;20466;-69
2021/06/13 05:38:49;;;;;;;6.17;2.70;;;13.60;86.30;;;;;;5115514;28;20460;-69
2021/06/13 05:41:16;;;;;;;9.83;2.73;;;13.60;47.30;;;;;;5115374;28;20456;-70
2021/06/13 05:43:44;;;;;;;7.03;2.50;;;13.70;99.90;;;;;;5115128;28;20456;-70
2021/06/13 05:46:11;;;;;;;12.63;2.77;;;13.70;1.00;;;;;;5115295;28;20484;-70
2021/06/13 05:48:37;;;;;;;5.97;2.40;;;13.80;1.00;;;;;;5115190;28;20806;-70
2021/06/13 05:51:06;;;;;;;8.03;2.70;;;13.80;1.00;;;;;;5115293;28;20482;-70
2021/06/13 05:53:33;;;;;;;9.67;2.77;;;13.80;1.00;;;;;;5115084;28;20477;-69
2021/06/13 05:56:00;;;;;;;10.30;2.93;;;13.90;1.00;;;;;;5115233;28;20457;-70
2021/06/13 05:58:26;;;;;;;5.80;2.30;;;13.90;1.00;;;;;;5114916;28;20448;-69
2021/06/13 06:00:54;;;;;;;4.43;2.50;;;14.00;1.00;;;;;;5115120;28;20460;-70
2021/06/13 06:03:22;;;;;;;6.20;2.57;;;14.10;1.00;;;;;;5114911;28;20463;-69
2021/06/13 06:05:50;;;;;;;12.07;3.43;;;14.10;1.00;;;;;;5115075;28;20456;-69
2021/06/13 06:08:17;;;;;;;10.27;2.73;;;14.00;1.00;;;;;;5115255;28;20562;-68
2021/06/13 06:10:45;;;;;;;9.33;2.17;;;14.10;1.00;;;;;;5115085;28;20461;-69
2021/06/13 06:13:12;;;;;;;6.13;2.67;;;14.10;1.00;;;;;;5115220;28;20480;-69
2021/06/13 06:15:41;;;;;;;3.50;1.87;;;14.10;1.00;;;;;;5115111;28;20452;-69
2021/06/13 06:18:09;;;;;;;5.23;2.33;;;14.20;1.00;;;;;;5115723;28;20456;-70
2021/06/13 06:20:36;;;;;;;5.07;2.30;;;14.20;1.00;;;;;;5115074;28;20463;-69
2021/06/13 06:23:04;;;;;;;5.23;2.67;;;14.20;1.00;;;;;;5115381;28;20452;-69
2021/06/13 06:25:33;;;;;;;4.10;2.30;;;14.20;1.00;;;;;;5115219;28;20464;-69
2021/06/13 06:28:00;;;;;;;5.60;2.43;;;14.30;1.00;;;;;;5115230;28;20576;-69
2021/06/13 06:30:28;;;;;;;11.00;2.00;;;14.30;99.90;;;;;;5118628;28;20923;-70
2021/06/13 06:32:55;;;;;;;5.67;2.63;;;14.40;99.90;;;;;;5118979;28;20464;-68
2021/06/13 06:35:26;;;;;;;8.20;2.60;;;14.30;99.90;;;;;;5118693;28;20912;-70
2021/06/13 06:37:53;;;;;;;13.47;2.73;;;14.30;99.90;;;;;;5118802;28;20440;-70
2021/06/13 06:40:20;;;;;;;4.13;2.17;;;14.30;99.90;;;;;;5119179;28;20460;-70
2021/06/13 06:42:47;;;;;;;9.57;2.90;;;14.40;99.90;;;;;;5118983;28;20440;-71
2021/06/13 06:45:14;;;;;;;5.20;2.30;;;14.50;99.90;;;;;;5118072;28;20453;-70
2021/06/13 06:47:42;;;;;;;6.73;2.23;;;14.60;99.90;;;;;;5118626;28;20450;-69
2021/06/13 06:50:09;;;;;;;5.33;2.67;;;14.60;99.90;;;;;;5118732;28;20444;-70
2021/06/13 06:52:38;;;;;;;6.70;2.73;;;14.70;99.90;;;;;;5118818;28;20467;-70
2021/06/13 06:55:06;;;;;;;5.90;2.13;;;14.60;99.90;;;;;;5118871;28;20452;-70
2021/06/13 06:57:32;;;;;;;6.37;2.53;;;14.60;99.90;;;;;;5118727;28;20478;-71
2021/06/13 06:59:59;;;;;;;6.80;2.70;;;14.60;99.90;;;;;;5118025;28;20479;-69
2021/06/13 07:02:26;;;;;;;8.50;2.60;;;14.60;99.90;;;;;;5118204;28;20460;-70
2021/06/13 07:04:53;;;;;;;8.63;2.50;;;14.70;99.90;;;;;;5118576;28;20529;-70
2021/06/13 07:07:20;;;;;;;4.17;2.07;;;14.80;99.90;;;;;;5118421;28;20456;-68
2021/06/13 07:09:48;;;;;;;4.97;2.30;;;14.90;99.90;;;;;;5118456;28;20476;-69
2021/06/13 07:12:14;;;;;;;5.50;2.60;;;15.00;99.90;;;;;;5118133;28;20449;-69
2021/06/13 07:14:41;;;;;;;6.10;2.30;;;15.00;99.90;;;;;;5118127;28;20456;-69
2021/06/13 07:17:08;;;;;;;3.00;1.93;;;15.10;99.90;;;;;;5118304;28;20464;-70
2021/06/13 07:19:34;;;;;;;7.10;2.00;;;15.10;99.90;;;;;;5117818;28;20452;-70
2021/06/13 07:22:01;;;;;;;6.80;2.23;;;15.10;99.90;;;;;;5118076;28;20816;-70
2021/06/13 07:24:28;;;;;;;4.43;2.23;;;15.10;99.90;;;;;;5117917;28;20460;-70
2021/06/13 07:26:56;;;;;;;4.80;2.33;;;15.10;99.90;;;;;;5117952;28;20463;-70
2021/06/13 07:29:23;;;;;;;7.30;1.93;;;15.30;99.90;;;;;;5117491;28;20472;-70
2021/06/13 07:31:49;;;;;;;12.40;5.63;;;15.40;99.90;;;;;;5117989;28;20460;-70
2021/06/13 07:34:16;;;;;;;5.00;2.13;;;15.50;99.90;;;;;;5118306;28;20452;-70
2021/06/13 07:36:43;;;;;;;6.67;2.10;;;15.60;91.60;;;;;;5117791;28;20457;-70
2021/06/13 07:39:10;;;;;;;4.97;2.40;;;15.60;78.00;;;;;;5117226;28;20460;-70
2021/06/13 07:41:37;;;;;;;6.70;2.23;;;15.60;67.90;;;;;;5117526;28;20487;-70
2021/06/13 07:44:05;;;;;;;8.70;2.60;;;15.60;70.00;;;;;;5117638;28;20456;-70
2021/06/13 07:46:34;;;;;;;2.70;1.70;;;15.60;56.60;;;;;;5117567;28;21012;-70
2021/06/13 07:49:03;;;;;;;5.70;2.30;;;15.70;41.20;;;;;;5117718;28;20512;-71
2021/06/13 07:51:31;;;;;;;4.10;1.87;;;15.60;36.60;;;;;;5117716;28;20465;-70
2021/06/13 07:53:58;;;;;;;10.47;1.97;;;15.60;41.70;;;;;;5117459;28;20813;-70
2021/06/13 07:56:25;;;;;;;5.07;2.07;;;15.70;38.40;;;;;;5117391;28;20467;-71
2021/06/13 07:58:52;;;;;;;6.57;2.50;;;15.90;35.30;;;;;;5117438;28;20513;-71
2021/06/13 08:01:20;;;;;;;10.57;2.83;;;16.00;21.10;;;;;;5117174;28;20457;-70
2021/06/13 08:03:46;;;;;;;6.73;2.50;;;16.00;11.70;;;;;;5117426;28;20452;-71
2021/06/13 08:06:13;;;;;;;9.57;2.47;;;16.00;7.50;;;;;;5117006;28;20463;-70
2021/06/13 08:08:40;;;;;;;8.30;2.53;;;15.90;8.80;;;;;;5116958;28;20487;-70
2021/06/13 08:11:12;;;;;;;9.63;2.70;;;15.80;10.90;;;;;;5116968;28;20905;-71
2021/06/13 08:13:42;;;;;;;6.57;2.50;;;15.80;15.70;;;;;;5117202;28;20437;-71
2021/06/13 08:16:09;;;;;;;8.33;2.53;;;15.80;9.00;;;;;;5116920;28;20479;-70
2021/06/13 08:18:38;;;;;;;5.10;2.20;;;15.80;10.70;;;;;;5116952;28;20483;-70
2021/06/13 08:21:05;;;;;;;4.00;2.00;;;15.80;5.20;;;;;;5117176;28;20479;-70
2021/06/13 08:23:32;;;;;;;4.90;2.57;;;15.90;1.00;;;;;;5117603;28;20467;-70
2021/06/13 08:25:59;;;;;;;4.30;2.00;;;16.10;1.00;;;;;;5118335;28;20490;-70
2021/06/13 08:28:26;;;;;;;3.30;2.10;;;16.20;1.00;;;;;;5117336;28;20449;-70
2021/06/13 08:30:53;;;;;;;4.83;2.37;;;16.40;1.00;;;;;;5117733;28;20767;-72
2021/06/13 08:33:20;;;;;;;4.60;2.40;;;16.60;1.00;;;;;;5117478;28;20456;-70
2021/06/13 08:35:48;;;;;;;5.63;2.30;;;16.80;1.00;;;;;;5117749;28;20463;-70
2021/06/13 08:38:15;;;;;;;5.30;2.10;;;16.90;1.00;;;;;;5117728;28;20934;-70
2021/06/13 08:40:41;;;;;;;6.63;2.20;;;16.70;1.00;;;;;;5116551;28;20945;-70
2021/06/13 08:43:08;;;;;;;6.30;2.10;;;16.70;1.00;;;;;;5116886;28;20467;-70
2021/06/13 08:45:37;;;;;;;3.10;2.13;;;16.70;1.00;;;;;;5116537;28;20812;-70
2021/06/13 08:48:07;;;;;;;5.00;2.23;;;16.60;1.00;;;;;;5116760;28;20452;-70
2021/06/13 08:50:35;;;;;;;6.80;2.60;;;16.50;1.00;;;;;;5116112;27;20529;-71
2021/06/13 08:53:05;;;;;;;7.53;2.70;;;16.50;1.00;;;;;;5116226;28;20452;-70
2021/06/13 08:55:32;;;;;;;6.27;2.30;;;16.50;1.00;;;;;;5116565;28;20487;-71
2021/06/13 08:58:10;;;;;;;3.67;1.90;;;16.70;1.00;;;;;;5116282;28;20476;-71
2021/06/13 09:00:55;;;;;;;7.43;2.37;;;16.70;1.00;;;;;;5116310;28;20803;-69
2021/06/13 09:03:22;;;;;;;6.30;2.60;;;16.60;1.00;;;;;;5116136;28;20448;-70
2021/06/13 09:05:52;;;;;;;9.60;3.17;;;16.50;1.00;;;;;;5115813;28;20463;-70
2021/06/13 09:08:20;;;;;;;6.10;2.47;;;16.20;1.00;;;;;;5116342;28;20920;-69
2021/06/13 09:10:47;;;;;;;7.10;3.00;;;16.00;1.00;;;;;;5116086;28;20486;-69
2021/06/13 09:13:19;;;;;;;7.40;3.50;;;16.00;1.00;;;;;;5116133;28;20452;-71
2021/06/13 09:15:48;;;;;;;6.60;3.30;;;16.00;1.00;;;;;;5116340;28;20468;-70
2021/06/13 09:18:36;;;;;;;6.57;2.80;;;16.00;4.80;;;;;;5115756;28;20457;-70
2021/06/13 09:21:04;;;;;;;11.60;3.00;;;16.00;18.60;;;;;;5115542;28;20459;-70
2021/06/13 09:23:35;;;;;;;7.33;2.53;;;16.00;24.20;;;;;;5115728;28;20797;-70
2021/06/13 09:26:03;;;;;;;3.90;2.90;;;16.00;25.80;;;;;;5115757;28;20444;-70
2021/06/13 09:28:33;;;;;;;5.03;2.73;;;16.10;23.30;;;;;;5115197;28;20982;-70
2021/06/13 09:31:00;;;;;;;6.13;2.43;;;16.10;24.60;;;;;;5115550;28;20452;-70
2021/06/13 09:33:29;;;;;;;4.83;2.40;;;16.00;97.70;;;;;;5115396;28;20513;-70
2021/06/13 09:35:57;;;;;;;6.00;2.63;;;16.00;99.90;;;;;;5115783;28;20763;-70
2021/06/13 09:38:26;;;;;;;5.13;2.73;;;15.90;99.90;;;;;;5115560;28;20464;-69
2021/06/13 09:41:00;;;;;;;6.33;3.23;;;15.70;1.00;;;;;;5115297;28;20464;-70
2021/06/13 09:43:32;;;;;;;5.27;3.20;;;15.60;1.00;;;;;;5115556;28;20440;-70
2021/06/13 09:46:07;;;;;;;4.50;2.87;;;15.40;4.90;;;;;;5115172;28;20493;-70
2021/06/13 09:48:36;;;;;;;7.23;3.70;;;15.30;1.00;;;;;;5115269;28;20516;-70
2021/06/13 09:51:05;;;;;;;5.40;2.77;;;15.20;1.00;;;;;;5115058;28;20812;-70
2021/06/13 09:53:38;;;;;;;6.90;3.53;;;15.20;27.20;;;;;;5114997;28;20475;-70
2021/06/13 09:56:14;;;;;;;7.43;2.53;;;15.30;1.00;;;;;;5115397;28;20447;-70
2021/06/13 09:59:04;;;;;;;14.50;3.00;;;15.40;99.90;;;;;;5115325;28;20747;-70
2021/06/13 10:01:38;;;;;;;6.57;2.67;;;15.50;1.00;;;;;;5110218;28;20463;-70
2021/06/13 10:04:06;;;;;;;5.37;2.97;;;15.70;1.00;;;;;;5118940;28;20436;-70
2021/06/13 10:06:36;;;;;;;4.33;2.20;;;15.90;1.00;;;;;;5119545;28;20711;-70
2021/06/13 10:09:06;;;;;;;7.63;2.60;;;16.20;99.90;;;;;;5119002;28;20455;-70
2021/06/13 10:11:37;;;;;;;6.43;2.90;;;16.40;99.90;;;;;;5119227;28;20467;-69
2021/06/13 10:14:07;;;;;;;10.50;3.17;;;16.40;99.90;;;;;;5119419;28;20437;-70
2021/06/13 10:16:38;;;;;;;3.40;2.20;;;16.40;99.90;;;;;;5118852;28;20437;-70
2021/06/13 10:19:11;;;;;;;3.10;2.40;;;16.30;99.90;;;;;;5118985;28;20441;-70
2021/06/13 10:21:41;;;;;;;5.37;2.60;;;16.30;99.90;;;;;;5120011;28;20764;-70
2021/06/13 10:24:11;;;;;;;8.10;2.97;;;16.40;99.90;;;;;;5118677;28;20880;-70
2021/06/13 10:26:42;;;;;;;4.83;2.50;;;16.40;99.90;;;;;;5119066;28;20479;-69
2021/06/13 10:29:12;;;;;;;6.20;2.50;;;16.40;99.90;;;;;;5119144;28;20459;-69
2021/06/13 10:31:39;;;;;;;3.70;2.53;;;16.50;99.90;;;;;;5119208;28;20443;-70
2021/06/13 10:34:06;;;;;;;5.17;2.43;;;16.60;99.90;;;;;;5119198;28;20456;-70
2021/06/13 10:36:34;;;;;;;4.40;2.43;;;16.70;77.40;;;;;;5119292;28;20815;-70
2021/06/13 10:39:01;;;;;;;8.00;2.43;;;16.80;29.50;;;;;;5119197;28;20467;-69
2021/06/13 10:41:28;;;;;;;6.70;3.10;;;16.90;13.80;;;;;;5118809;28;20467;-69
2021/06/13 10:44:04;;;;;;;6.63;2.40;;;17.10;1.00;;;;;;5119245;28;20463;-70
2021/06/13 10:46:32;;;;;;;8.13;2.47;;;17.30;1.00;;;;;;5118708;28;20480;-70
2021/06/13 10:49:01;;;;;;;5.90;2.17;;;17.40;1.00;;;;;;5118663;28;20456;-70
2021/06/13 10:51:48;;;;;;;7.60;2.30;;;17.40;1.00;;;;;;5118894;28;20452;-70
2021/06/13 10:54:30;;;;;;;6.93;2.33;;;17.50;1.00;;;;;;5111893;28;20467;-69
2021/06/13 10:57:32;;;;;;;6.50;2.87;;;17.60;1.00;;;;;;5118849;28;20443;-70
2021/06/13 11:00:00;;;;;;;3.77;2.60;;;17.50;1.00;;;;;;5119876;28;20492;-71
2021/06/13 11:02:27;;;;;;;5.40;2.20;;;17.50;1.00;;;;;;5119579;28;20460;-69
2021/06/13 11:04:56;;;;;;;3.83;2.27;;;17.50;1.00;;;;;;5118629;28;20452;-71
2021/06/13 11:07:59;;;;;;;4.70;2.70;;;17.30;1.00;;;;;;5118584;28;20475;-71
2021/06/13 11:10:31;;;;;;;6.20;2.60;;;17.20;1.00;;;;;;5117850;28;20791;-70
2021/06/13 11:13:02;;;;;;;5.63;2.50;;;17.20;1.00;;;;;;5118194;28;20460;-71
2021/06/13 11:15:57;;;;;;;5.97;3.00;;;17.20;1.00;;;;;;5117383;28;20504;-69
2021/06/13 11:18:27;;;;;;;7.63;2.97;;;17.20;1.00;;;;;;5114899;28;20460;-69
2021/06/13 11:21:04;;;;;;;7.53;3.40;;;17.30;1.00;;;;;;5118133;28;20452;-69
2021/06/13 11:23:54;;;;;;;6.67;3.30;;;17.30;1.00;;;;;;5117593;28;20436;-69
2021/06/13 11:26:44;;;;;;;4.33;2.60;;;17.40;1.00;;;;;;5118155;28;20441;-70
2021/06/13 11:29:16;;;;;;;5.60;3.00;;;17.60;1.00;;;;;;5117819;28;20466;-70
2021/06/13 11:31:52;;;;;;;3.70;2.53;;;17.80;1.00;;;;;;5117499;28;20468;-70
2021/06/13 11:34:21;;;;;;;8.70;2.70;;;18.00;1.00;;;;;;5118231;28;20436;-70
2021/06/13 11:36:50;;;;;;;7.03;3.17;;;18.30;1.00;;;;;;5118183;28;20874;-68
2021/06/13 11:39:28;;;;;;;8.00;2.57;;;18.50;1.00;;;;;;5117878;28;20456;-69
2021/06/13 11:42:17;;;;;;;6.30;2.80;;;18.70;1.00;;;;;;5117688;28;20448;-69
2021/06/13 11:44:50;;;;;;;5.97;2.80;;;18.80;1.00;;;;;;5117905;28;20455;-70
2021/06/13 11:47:28;;;;;;;5.53;2.87;;;18.70;1.00;;;;;;5117500;28;20491;-69
2021/06/13 11:49:56;;;;;;;4.67;2.77;;;18.70;1.00;;;;;;5117452;28;20460;-70
2021/06/13 11:53:03;;;;;;;6.67;3.17;;;18.70;1.00;;;;;;5117051;28;20492;-70
2021/06/13 11:56:00;;;;;;;5.90;3.43;;;18.60;1.00;;;;;;5117492;28;20460;-70
2021/06/13 11:58:33;;;;;;;5.57;3.20;;;18.60;1.00;;;;;;5115878;28;20460;-70
2021/06/13 12:01:03;;;;;;;6.10;2.63;;;18.70;1.00;;;;;;5117684;28;20501;-70
2021/06/13 12:03:31;;;;;;;5.07;2.70;;;18.90;1.00;;;;;;5118046;28;20453;-70
2021/06/13 12:08:44;;;;;;;6.23;3.63;;;19.50;1.00;;;;;;5114801;28;20985;-68
2021/06/13 12:11:36;;;;;;;6.87;2.77;;;19.60;1.00;;;;;;5117213;28;20479;-70
2021/06/13 12:14:34;;;;;;;3.27;2.77;;;19.70;1.00;;;;;;5118196;28;20862;-71
2021/06/13 12:17:05;;;;;;;6.00;3.80;;;19.70;1.00;;;;;;5116821;28;20456;-72
2021/06/13 12:19:39;;;;;;;4.87;2.90;;;19.60;1.00;;;;;;5117288;28;20440;-71
2021/06/13 12:28:12;;;;;;;4.60;3.10;;;19.90;1.00;;;;;;5085480;28;20935;-71
2021/06/13 12:30:40;;;;;;;6.50;3.40;;;20.30;1.00;;;;;;5116416;28;20525;-69
2021/06/13 12:33:10;;;;;;;5.40;2.80;;;20.90;1.00;;;;;;5116603;28;20452;-69
2021/06/13 12:35:39;;;;;;;4.90;3.07;;;21.30;1.00;;;;;;5116635;28;20441;-70
2021/06/13 12:38:08;;;;;;;4.10;2.67;;;21.40;1.00;;;;;;5117545;28;20455;-71
2021/06/13 12:40:36;;;;;;;5.93;2.93;;;21.50;1.00;;;;;;5116595;28;20460;-71
2021/06/13 12:43:03;;;;;;;6.87;3.20;;;21.60;1.00;;;;;;5116517;28;20629;-70
2021/06/13 12:45:30;;;;;;;5.90;3.23;;;21.40;1.00;;;;;;5116306;28;20613;-71
2021/06/13 12:47:59;;;;;;;6.43;3.30;;;21.20;1.00;;;;;;5116254;28;20444;-72
2021/06/13 12:50:29;;;;;;;5.03;3.13;;;20.80;1.00;;;;;;5116288;28;20811;-70
2021/06/13 12:52:58;;;;;;;5.20;3.30;;;20.60;1.00;;;;;;5116132;28;20452;-71
2021/06/13 12:55:26;;;;;;;4.67;3.40;;;20.70;1.00;;;;;;5116786;28;20801;-71
2021/06/13 12:57:53;;;;;;;3.80;3.00;;;21.40;1.00;;;;;;5116490;28;20793;-71
2021/06/13 13:00:22;;;;;;;4.83;3.30;;;22.00;1.00;;;;;;5116148;28;20467;-70
2021/06/13 13:03:04;;;;;;;4.93;3.03;;;22.40;1.00;;;;;;5116107;28;20460;-70
2021/06/13 13:05:33;;;;;;;8.30;3.27;;;22.30;1.00;;;;;;5116301;28;20776;-70
2021/06/13 13:08:18;;;;;;;6.83;3.40;;;22.30;1.00;;;;;;5117121;28;20456;-72
2021/06/13 13:10:59;;;;;;;4.07;3.07;;;22.10;1.00;;;;;;5116380;28;20472;-70
2021/06/13 13:13:27;;;;;;;3.57;3.00;;;21.70;1.00;;;;;;5116066;28;20456;-70